sensor_id;sensor_type;location;lat;lon;timestamp;pressure;altitude;pressure_sealevel;temperature;humidity
58622;BME280;44389;51.578;5.456;2022-10-17T00:00:41;101488.59;;;11.71;100.00
58622;BME280;44389;51.578;5.456;2022-10-17T00:03:06;101493.88;;;11.74;100.00
58622;BME280;44389;51.578;5.456;2022-10-17T00:05:32;101490.16;;;11.66;100.00
58622;BME280;44389;51.578;5.456;2022-10-17T00:07:57;101485.53;;;11.57;100.00
58622;BME280;44389;51.578;5.456;2022-10-17T00:10:23;101484.63;;;11.57;100.00
58622;BME280;44389;51.578;5.456;2022-10-17T00:12:49;101489.59;;;11.50;100.00
58622;BME280;44389;51.578;5.456;2022-10-17T00:15:17;101489.47;;;11.47;100.00
58622;BME280;44389;51.578;5.456;2022-10-17T00:17:43;101480.19;;;11.52;100.00
58622;BME280;44389;51.578;5.456;2022-10-17T00:20:09;101486.06;;;11.48;100.00
58622;BME280;44389;51.578;5.456;2022-10-17T00:22:34;101484.06;;;11.41;100.00
58622;BME280;44389;51.578;5.456;2022-10-17T00:24:59;101484.75;;;11.60;100.00
58622;BME280;44389;51.578;5.456;2022-10-17T00:27:25;101477.03;;;11.60;100.00
58622;BME280;44389;51.578;5.456;2022-10-17T00:29:50;101475.03;;;11.52;100.00
58622;BME280;44389;51.578;5.456;2022-10-17T00:32:17;101473.13;;;11.47;100.00
58622;BME280;44389;51.578;5.456;2022-10-17T00:34:42;101465.88;;;11.61;100.00
58622;BME280;44389;51.578;5.456;2022-10-17T00:37:08;101463.88;;;11.53;100.00
58622;BME280;44389;51.578;5.456;2022-10-17T00:39:33;101459.34;;;11.72;100.00
58622;BME280;44389;51.578;5.456;2022-10-17T00:41:58;101458.16;;;11.86;100.00
58622;BME280;44389;51.578;5.456;2022-10-17T00:49:22;101466.44;;;12.02;100.00
58622;BME280;44389;51.578;5.456;2022-10-17T00:54:18;101459.31;;;12.21;100.00
58622;BME280;44389;51.578;5.456;2022-10-17T00:56:45;101464.47;;;12.21;100.00
58622;BME280;44389;51.578;5.456;2022-10-17T00:59:12;101464.69;;;12.27;100.00
58622;BME280;44389;51.578;5.456;2022-10-17T01:01:40;101462.34;;;12.34;100.00
58622;BME280;44389;51.578;5.456;2022-10-17T01:04:06;101465.00;;;12.38;100.00
58622;BME280;44389;51.578;5.456;2022-10-17T01:06:32;101461.72;;;12.43;100.00
58622;BME280;44389;51.578;5.456;2022-10-17T01:08:57;101454.81;;;12.42;100.00
58622;BME280;44389;51.578;5.456;2022-10-17T01:14:15;101450.72;;;12.49;100.00
58622;BME280;44389;51.578;5.456;2022-10-17T01:27:59;101451.00;;;12.58;100.00
58622;BME280;44389;51.578;5.456;2022-10-17T01:34:13;101448.66;;;12.66;100.00
58622;BME280;44389;51.578;5.456;2022-10-17T01:36:52;101455.59;;;12.67;100.00
58622;BME280;44389;51.578;5.456;2022-10-17T01:42:06;101446.16;;;12.69;100.00
58622;BME280;44389;51.578;5.456;2022-10-17T01:44:43;101438.50;;;12.72;100.00
58622;BME280;44389;51.578;5.456;2022-10-17T01:47:15;101433.31;;;12.72;100.00
58622;BME280;44389;51.578;5.456;2022-10-17T01:49:44;101436.66;;;12.68;100.00
58622;BME280;44389;51.578;5.456;2022-10-17T01:52:14;101438.59;;;12.75;100.00
58622;BME280;44389;51.578;5.456;2022-10-17T01:54:44;101438.69;;;12.78;100.00
58622;BME280;44389;51.578;5.456;2022-10-17T01:57:22;101439.59;;;12.80;100.00
58622;BME280;44389;51.578;5.456;2022-10-17T01:59:51;101441.28;;;12.78;100.00
58622;BME280;44389;51.578;5.456;2022-10-17T02:02:18;101444.03;;;12.84;100.00
58622;BME280;44389;51.578;5.456;2022-10-17T02:04:46;101437.19;;;12.87;100.00
58622;BME280;44389;51.578;5.456;2022-10-17T02:07:14;101433.13;;;12.95;100.00
58622;BME280;44389;51.578;5.456;2022-10-17T02:09:39;101433.19;;;12.96;100.00
58622;BME280;44389;51.578;5.456;2022-10-17T02:15:23;101430.53;;;12.95;100.00
58622;BME280;44389;51.578;5.456;2022-10-17T02:23:30;101424.66;;;13.00;100.00
58622;BME280;44389;51.578;5.456;2022-10-17T02:26:11;101424.63;;;12.99;100.00
58622;BME280;44389;51.578;5.456;2022-10-17T02:29:02;101428.88;;;12.97;100.00
58622;BME280;44389;51.578;5.456;2022-10-17T02:31:44;101419.28;;;12.93;100.00
58622;BME280;44389;51.578;5.456;2022-10-17T02:34:30;101431.47;;;12.97;100.00
58622;BME280;44389;51.578;5.456;2022-10-17T02:36:59;101426.31;;;12.98;100.00
58622;BME280;44389;51.578;5.456;2022-10-17T02:39:27;101427.38;;;13.05;100.00
58622;BME280;44389;51.578;5.456;2022-10-17T02:41:55;101430.91;;;13.07;100.00
58622;BME280;44389;51.578;5.456;2022-10-17T02:44:22;101429.13;;;13.06;100.00
58622;BME280;44389;51.578;5.456;2022-10-17T02:46:54;101424.06;;;13.09;100.00
58622;BME280;44389;51.578;5.456;2022-10-17T02:49:27;101425.00;;;13.13;100.00
58622;BME280;44389;51.578;5.456;2022-10-17T02:57:29;101421.72;;;13.18;100.00
58622;BME280;44389;51.578;5.456;2022-10-17T02:59:57;101422.41;;;13.42;100.00
58622;BME280;44389;51.578;5.456;2022-10-17T03:02:23;101418.19;;;13.45;100.00
58622;BME280;44389;51.578;5.456;2022-10-17T03:04:49;101423.56;;;13.53;100.00
58622;BME280;44389;51.578;5.456;2022-10-17T03:07:14;101425.78;;;13.71;100.00
58622;BME280;44389;51.578;5.456;2022-10-17T03:09:39;101419.19;;;13.84;100.00
58622;BME280;44389;51.578;5.456;2022-10-17T03:12:05;101424.47;;;13.89;100.00
58622;BME280;44389;51.578;5.456;2022-10-17T03:14:30;101417.63;;;13.91;100.00
58622;BME280;44389;51.578;5.456;2022-10-17T03:16:55;101427.28;;;13.98;100.00
58622;BME280;44389;51.578;5.456;2022-10-17T03:19:21;101422.97;;;13.97;100.00
58622;BME280;44389;51.578;5.456;2022-10-17T03:21:46;101414.47;;;14.04;100.00
58622;BME280;44389;51.578;5.456;2022-10-17T03:24:11;101424.84;;;14.04;100.00
58622;BME280;44389;51.578;5.456;2022-10-17T03:26:37;101412.88;;;14.09;100.00
58622;BME280;44389;51.578;5.456;2022-10-17T03:29:02;101427.59;;;14.10;100.00
58622;BME280;44389;51.578;5.456;2022-10-17T03:31:27;101421.59;;;14.11;100.00
58622;BME280;44389;51.578;5.456;2022-10-17T03:33:53;101422.34;;;14.07;100.00
58622;BME280;44389;51.578;5.456;2022-10-17T03:36:18;101418.91;;;14.08;100.00
58622;BME280;44389;51.578;5.456;2022-10-17T03:38:44;101420.59;;;14.06;100.00
58622;BME280;44389;51.578;5.456;2022-10-17T03:41:09;101418.88;;;14.07;100.00
58622;BME280;44389;51.578;5.456;2022-10-17T03:43:36;101427.53;;;14.07;100.00
58622;BME280;44389;51.578;5.456;2022-10-17T03:46:01;101422.25;;;14.04;100.00
58622;BME280;44389;51.578;5.456;2022-10-17T03:48:28;101420.63;;;14.08;100.00
58622;BME280;44389;51.578;5.456;2022-10-17T03:51:03;101412.88;;;14.09;100.00
58622;BME280;44389;51.578;5.456;2022-10-17T03:53:28;101410.28;;;14.09;100.00
58622;BME280;44389;51.578;5.456;2022-10-17T03:55:54;101406.94;;;14.13;100.00
58622;BME280;44389;51.578;5.456;2022-10-17T03:58:19;101416.47;;;14.14;100.00
58622;BME280;44389;51.578;5.456;2022-10-17T04:00:44;101417.25;;;14.12;100.00
58622;BME280;44389;51.578;5.456;2022-10-17T04:03:10;101419.91;;;14.15;100.00
58622;BME280;44389;51.578;5.456;2022-10-17T04:05:35;101418.13;;;14.12;100.00
58622;BME280;44389;51.578;5.456;2022-10-17T04:08:00;101425.09;;;14.15;100.00
58622;BME280;44389;51.578;5.456;2022-10-17T04:10:26;101425.16;;;14.16;100.00
58622;BME280;44389;51.578;5.456;2022-10-17T04:12:51;101427.78;;;14.18;100.00
58622;BME280;44389;51.578;5.456;2022-10-17T04:15:16;101433.03;;;14.21;100.00
58622;BME280;44389;51.578;5.456;2022-10-17T04:17:41;101428.84;;;14.26;100.00
58622;BME280;44389;51.578;5.456;2022-10-17T04:20:07;101435.81;;;14.29;100.00
58622;BME280;44389;51.578;5.456;2022-10-17T04:22:32;101435.97;;;14.35;100.00
58622;BME280;44389;51.578;5.456;2022-10-17T04:24:58;101439.38;;;14.34;100.00
58622;BME280;44389;51.578;5.456;2022-10-17T04:27:23;101444.56;;;14.34;100.00
58622;BME280;44389;51.578;5.456;2022-10-17T04:29:48;101448.94;;;14.35;100.00
58622;BME280;44389;51.578;5.456;2022-10-17T04:32:14;101448.94;;;14.35;100.00
58622;BME280;44389;51.578;5.456;2022-10-17T04:34:39;101454.13;;;14.37;100.00
58622;BME280;44389;51.578;5.456;2022-10-17T04:37:04;101461.09;;;14.38;100.00
58622;BME280;44389;51.578;5.456;2022-10-17T04:39:30;101456.84;;;14.41;100.00
58622;BME280;44389;51.578;5.456;2022-10-17T04:41:55;101458.63;;;14.42;100.00
58622;BME280;44389;51.578;5.456;2022-10-17T04:44:21;101461.28;;;14.47;100.00
58622;BME280;44389;51.578;5.456;2022-10-17T04:46:46;101469.06;;;14.47;100.00
58622;BME280;44389;51.578;5.456;2022-10-17T04:49:11;101473.38;;;14.45;100.00
58622;BME280;44389;51.578;5.456;2022-10-17T04:51:37;101469.09;;;14.48;100.00
58622;BME280;44389;51.578;5.456;2022-10-17T04:54:03;101472.56;;;14.47;100.00
58622;BME280;44389;51.578;5.456;2022-10-17T04:56:28;101479.41;;;14.45;100.00
58622;BME280;44389;51.578;5.456;2022-10-17T04:58:53;101483.81;;;14.48;100.00
58622;BME280;44389;51.578;5.456;2022-10-17T05:01:20;101486.44;;;14.49;100.00
58622;BME280;44389;51.578;5.456;2022-10-17T05:03:46;101492.44;;;14.48;100.00
58622;BME280;44389;51.578;5.456;2022-10-17T05:06:17;101496.81;;;14.49;100.00
58622;BME280;44389;51.578;5.456;2022-10-17T05:08:43;101492.53;;;14.52;100.00
58622;BME280;44389;51.578;5.456;2022-10-17T05:11:35;101500.38;;;14.55;100.00
58622;BME280;44389;51.578;5.456;2022-10-17T05:14:01;101489.19;;;14.56;100.00
58622;BME280;44389;51.578;5.456;2022-10-17T05:16:27;101480.53;;;14.55;100.00
58622;BME280;44389;51.578;5.456;2022-10-17T05:18:55;101478.81;;;14.56;100.00
58622;BME280;44389;51.578;5.456;2022-10-17T05:21:21;101490.81;;;14.52;100.00
58622;BME280;44389;51.578;5.456;2022-10-17T05:23:47;101487.38;;;14.53;100.00
58622;BME280;44389;51.578;5.456;2022-10-17T05:26:13;101502.09;;;14.53;100.00
58622;BME280;44389;51.578;5.456;2022-10-17T05:28:38;101497.72;;;14.52;100.00
58622;BME280;44389;51.578;5.456;2022-10-17T05:31:05;101500.47;;;14.58;100.00
58622;BME280;44389;51.578;5.456;2022-10-17T05:33:32;101499.66;;;14.60;100.00
58622;BME280;44389;51.578;5.456;2022-10-17T05:35:57;101504.91;;;14.63;100.00
58622;BME280;44389;51.578;5.456;2022-10-17T05:38:23;101509.25;;;14.63;100.00
58622;BME280;44389;51.578;5.456;2022-10-17T05:40:48;101501.53;;;14.64;100.00
58622;BME280;44389;51.578;5.456;2022-10-17T05:43:13;101504.97;;;14.65;100.00
58622;BME280;44389;51.578;5.456;2022-10-17T05:45:39;101509.34;;;14.66;100.00
58622;BME280;44389;51.578;5.456;2022-10-17T05:48:05;101513.75;;;14.70;100.00
58622;BME280;44389;51.578;5.456;2022-10-17T05:50:30;101516.44;;;14.73;100.00
58622;BME280;44389;51.578;5.456;2022-10-17T05:52:56;101514.72;;;14.75;100.00
58622;BME280;44389;51.578;5.456;2022-10-17T05:55:21;101516.47;;;14.75;100.00
58622;BME280;44389;51.578;5.456;2022-10-17T05:57:47;101522.53;;;14.77;100.00
58622;BME280;44389;51.578;5.456;2022-10-17T06:00:13;101514.88;;;14.81;100.00
58622;BME280;44389;51.578;5.456;2022-10-17T06:02:38;101522.72;;;14.85;100.00
58622;BME280;44389;51.578;5.456;2022-10-17T06:05:03;101520.22;;;14.88;100.00
58622;BME280;44389;51.578;5.456;2022-10-17T06:07:29;101521.09;;;14.90;100.00
58622;BME280;44389;51.578;5.456;2022-10-17T06:09:54;101518.47;;;14.87;100.00
58622;BME280;44389;51.578;5.456;2022-10-17T06:12:19;101522.81;;;14.88;100.00
58622;BME280;44389;51.578;5.456;2022-10-17T06:14:44;101515.97;;;14.91;100.00
58622;BME280;44389;51.578;5.456;2022-10-17T06:17:10;101515.09;;;14.92;100.00
58622;BME280;44389;51.578;5.456;2022-10-17T06:19:35;101516.97;;;14.98;100.00
58622;BME280;44389;51.578;5.456;2022-10-17T06:22:00;101518.69;;;14.97;100.00
58622;BME280;44389;51.578;5.456;2022-10-17T06:24:26;101517.81;;;14.97;100.00
58622;BME280;44389;51.578;5.456;2022-10-17T06:26:51;101523.94;;;14.99;100.00
58622;BME280;44389;51.578;5.456;2022-10-17T06:29:16;101523.94;;;14.99;100.00
58622;BME280;44389;51.578;5.456;2022-10-17T06:31:42;101524.00;;;15.02;100.00
58622;BME280;44389;51.578;5.456;2022-10-17T06:34:07;101522.22;;;15.01;100.00
58622;BME280;44389;51.578;5.456;2022-10-17T06:36:32;101523.16;;;15.03;100.00
58622;BME280;44389;51.578;5.456;2022-10-17T06:38:58;101520.63;;;15.06;100.00
58622;BME280;44389;51.578;5.456;2022-10-17T06:41:23;101536.34;;;15.12;100.00
58622;BME280;44389;51.578;5.456;2022-10-17T06:43:49;101532.00;;;15.13;100.00
58622;BME280;44389;51.578;5.456;2022-10-17T06:46:16;101532.13;;;15.18;100.00
58622;BME280;44389;51.578;5.456;2022-10-17T06:48:41;101538.28;;;15.23;100.00
58622;BME280;44389;51.578;5.456;2022-10-17T06:51:07;101538.41;;;15.27;100.00
58622;BME280;44389;51.578;5.456;2022-10-17T06:53:37;101559.25;;;15.32;100.00
58622;BME280;44389;51.578;5.456;2022-10-17T06:56:04;101556.75;;;15.35;100.00
58622;BME280;44389;51.578;5.456;2022-10-17T06:58:34;101552.44;;;15.37;100.00
58622;BME280;44389;51.578;5.456;2022-10-17T07:01:02;101549.03;;;15.40;100.00
58622;BME280;44389;51.578;5.456;2022-10-17T07:03:28;101551.72;;;15.43;100.00
58622;BME280;44389;51.578;5.456;2022-10-17T07:05:54;101545.75;;;15.48;100.00
58622;BME280;44389;51.578;5.456;2022-10-17T07:08:20;101550.16;;;15.53;100.00
58622;BME280;44389;51.578;5.456;2022-10-17T07:10:46;101558.91;;;15.58;100.00
58622;BME280;44389;51.578;5.456;2022-10-17T07:13:11;101559.00;;;15.61;100.00
58622;BME280;44389;51.578;5.456;2022-10-17T07:15:37;101556.44;;;15.64;100.00
58622;BME280;44389;51.578;5.456;2022-10-17T07:18:03;101554.78;;;15.66;100.00
58622;BME280;44389;51.578;5.456;2022-10-17T07:20:29;101554.81;;;15.69;100.00
58622;BME280;44389;51.578;5.456;2022-10-17T07:22:54;101552.31;;;15.74;100.00
58622;BME280;44389;51.578;5.456;2022-10-17T07:25:19;101554.94;;;15.75;100.00
58622;BME280;44389;51.578;5.456;2022-10-17T07:27:45;101568.84;;;15.77;100.00
58622;BME280;44389;51.578;5.456;2022-10-17T07:30:10;101574.03;;;15.77;100.00
58622;BME280;44389;51.578;5.456;2022-10-17T07:32:36;101577.53;;;15.79;100.00
58622;BME280;44389;51.578;5.456;2022-10-17T07:35:01;101580.16;;;15.79;100.00
58622;BME280;44389;51.578;5.456;2022-10-17T07:37:27;101594.00;;;15.80;100.00
58622;BME280;44389;51.578;5.456;2022-10-17T07:39:53;101614.91;;;15.83;100.00
58622;BME280;44389;51.578;5.456;2022-10-17T07:42:18;101645.28;;;15.86;100.00
58622;BME280;44389;51.578;5.456;2022-10-17T07:44:43;101663.50;;;15.86;100.00
58622;BME280;44389;51.578;5.456;2022-10-17T07:47:11;101678.22;;;15.87;100.00
58622;BME280;44389;51.578;5.456;2022-10-17T07:49:36;101691.03;;;15.79;100.00
58622;BME280;44389;51.578;5.456;2022-10-17T07:52:08;101716.94;;;15.76;100.00
58622;BME280;44389;51.578;5.456;2022-10-17T07:54:33;101726.38;;;15.72;100.00
58622;BME280;44389;51.578;5.456;2022-10-17T07:56:59;101721.94;;;15.67;100.00
58622;BME280;44389;51.578;5.456;2022-10-17T07:59:24;101721.00;;;15.63;100.00
58622;BME280;44389;51.578;5.456;2022-10-17T08:01:49;101725.22;;;15.58;100.00
58622;BME280;44389;51.578;5.456;2022-10-17T08:04:15;101707.78;;;15.52;100.00
58622;BME280;44389;51.578;5.456;2022-10-17T08:06:41;101691.16;;;15.45;100.00
58622;BME280;44389;51.578;5.456;2022-10-17T08:09:06;101717.06;;;15.42;100.00
58622;BME280;44389;51.578;5.456;2022-10-17T08:11:31;101711.78;;;15.38;100.00
58622;BME280;44389;51.578;5.456;2022-10-17T08:13:57;101703.03;;;15.34;100.00
58622;BME280;44389;51.578;5.456;2022-10-17T08:16:22;101709.88;;;15.32;100.00
58622;BME280;44389;51.578;5.456;2022-10-17T08:18:47;101715.06;;;15.30;100.00
58622;BME280;44389;51.578;5.456;2022-10-17T08:21:13;101732.38;;;15.30;100.00
58622;BME280;44389;51.578;5.456;2022-10-17T08:23:38;101748.69;;;15.26;100.00
58622;BME280;44389;51.578;5.456;2022-10-17T08:26:05;101772.06;;;15.26;100.00
58622;BME280;44389;51.578;5.456;2022-10-17T08:28:34;101799.72;;;15.24;100.00
58622;BME280;44389;51.578;5.456;2022-10-17T08:31:04;101804.94;;;15.24;100.00
58622;BME280;44389;51.578;5.456;2022-10-17T08:33:30;101772.84;;;15.22;100.00
58622;BME280;44389;51.578;5.456;2022-10-17T08:35:59;101764.22;;;15.23;100.00
58622;BME280;44389;51.578;5.456;2022-10-17T08:38:25;101782.44;;;15.26;100.00
58622;BME280;44389;51.578;5.456;2022-10-17T08:40:50;101791.09;;;15.25;100.00
58622;BME280;44389;51.578;5.456;2022-10-17T08:43:25;101765.97;;;15.24;100.00
58622;BME280;44389;51.578;5.456;2022-10-17T08:45:59;101771.13;;;15.22;100.00
58622;BME280;44389;51.578;5.456;2022-10-17T08:48:30;101780.63;;;15.22;100.00
58622;BME280;44389;51.578;5.456;2022-10-17T08:53:50;101763.34;;;15.22;100.00
58622;BME280;44389;51.578;5.456;2022-10-17T08:56:24;101764.19;;;15.21;100.00
58622;BME280;44389;51.578;5.456;2022-10-17T08:58:50;101770.22;;;15.22;100.00
58622;BME280;44389;51.578;5.456;2022-10-17T09:01:35;101772.00;;;15.23;100.00
58622;BME280;44389;51.578;5.456;2022-10-17T09:07:12;101779.03;;;15.27;100.00
58622;BME280;44389;51.578;5.456;2022-10-17T09:09:54;101772.94;;;15.25;100.00
58622;BME280;44389;51.578;5.456;2022-10-17T09:15:34;101804.94;;;15.24;100.00
58622;BME280;44389;51.578;5.456;2022-10-17T09:21:03;101836.00;;;15.21;100.00
58622;BME280;44389;51.578;5.456;2022-10-17T09:23:45;101834.25;;;15.20;100.00
58622;BME280;44389;51.578;5.456;2022-10-17T09:26:11;101841.13;;;15.18;100.00
58622;BME280;44389;51.578;5.456;2022-10-17T09:28:38;101830.66;;;15.14;100.00
58622;BME280;44389;51.578;5.456;2022-10-17T09:31:11;101814.22;;;15.15;100.00
58622;BME280;44389;51.578;5.456;2022-10-17T09:33:42;101780.47;;;15.15;100.00
58622;BME280;44389;51.578;5.456;2022-10-17T09:36:18;101749.28;;;15.15;100.00
58622;BME280;44389;51.578;5.456;2022-10-17T09:38:51;101733.81;;;15.19;100.00
58622;BME280;44389;51.578;5.456;2022-10-17T09:41:20;101738.28;;;15.24;100.00
58622;BME280;44389;51.578;5.456;2022-10-17T09:43:46;101756.59;;;15.30;100.00
58622;BME280;44389;51.578;5.456;2022-10-17T09:46:18;101772.22;;;15.32;100.00
58622;BME280;44389;51.578;5.456;2022-10-17T09:49:00;101799.03;;;15.31;100.00
58622;BME280;44389;51.578;5.456;2022-10-17T09:51:27;101799.91;;;15.30;100.00
58622;BME280;44389;51.578;5.456;2022-10-17T09:54:00;101824.09;;;15.29;100.00
58622;BME280;44389;51.578;5.456;2022-10-17T09:56:27;101796.38;;;15.28;100.00
58622;BME280;44389;51.578;5.456;2022-10-17T09:58:55;101799.03;;;15.31;100.00
58622;BME280;44389;51.578;5.456;2022-10-17T10:01:25;101786.13;;;15.34;100.00
58622;BME280;44389;51.578;5.456;2022-10-17T10:04:15;101781.00;;;15.37;100.00
58622;BME280;44389;51.578;5.456;2022-10-17T10:07:00;101778.50;;;15.40;100.00
58622;BME280;44389;51.578;5.456;2022-10-17T10:09:32;101784.56;;;15.41;100.00
58622;BME280;44389;51.578;5.456;2022-10-17T10:12:02;101787.22;;;15.44;100.00
58622;BME280;44389;51.578;5.456;2022-10-17T10:14:36;101789.88;;;15.45;100.00
58622;BME280;44389;51.578;5.456;2022-10-17T10:17:05;101808.06;;;15.45;100.00
58622;BME280;44389;51.578;5.456;2022-10-17T10:19:50;101811.56;;;15.47;100.00
58622;BME280;44389;51.578;5.456;2022-10-17T10:22:18;101807.19;;;15.46;100.00
58622;BME280;44389;51.578;5.456;2022-10-17T10:24:43;101814.16;;;15.47;100.00
58622;BME280;44389;51.578;5.456;2022-10-17T10:27:16;101826.38;;;15.52;100.00
58622;BME280;44389;51.578;5.456;2022-10-17T10:29:48;101836.94;;;15.58;100.00
58622;BME280;44389;51.578;5.456;2022-10-17T10:34:52;101849.31;;;15.68;100.00
58622;BME280;44389;51.578;5.456;2022-10-17T10:37:22;101850.94;;;15.64;100.00
58622;BME280;44389;51.578;5.456;2022-10-17T10:39:55;101854.50;;;15.68;100.00
58622;BME280;44389;51.578;5.456;2022-10-17T10:42:22;101860.66;;;15.72;100.00
58622;BME280;44389;51.578;5.456;2022-10-17T10:44:49;101863.25;;;15.70;100.00
58622;BME280;44389;51.578;5.456;2022-10-17T10:49:40;101882.25;;;15.69;100.00
58622;BME280;44389;51.578;5.456;2022-10-17T10:52:07;101890.91;;;15.68;100.00
58622;BME280;44389;51.578;5.456;2022-10-17T10:54:41;101890.84;;;15.65;100.00
58622;BME280;44389;51.578;5.456;2022-10-17T10:57:13;101896.91;;;15.66;100.00
58622;BME280;44389;51.578;5.456;2022-10-17T11:02:29;101907.19;;;15.61;100.00
58622;BME280;44389;51.578;5.456;2022-10-17T11:04:57;101901.28;;;15.68;100.00
58622;BME280;44389;51.578;5.456;2022-10-17T11:07:33;101903.69;;;15.60;100.00
58622;BME280;44389;51.578;5.456;2022-10-17T11:10:13;101901.94;;;15.59;100.00
58622;BME280;44389;51.578;5.456;2022-10-17T11:12:51;101900.25;;;15.61;100.00
58622;BME280;44389;51.578;5.456;2022-10-17T11:15:22;101900.31;;;15.64;100.00
58622;BME280;44389;51.578;5.456;2022-10-17T11:18:02;101905.63;;;15.68;100.00
58622;BME280;44389;51.578;5.456;2022-10-17T11:20:35;101917.69;;;15.66;100.00
58622;BME280;44389;51.578;5.456;2022-10-17T11:23:16;101929.03;;;15.69;100.00
58622;BME280;44389;51.578;5.456;2022-10-17T11:25:47;101933.31;;;15.67;100.00
58622;BME280;44389;51.578;5.456;2022-10-17T11:28:16;101932.41;;;15.65;100.00
58622;BME280;44389;51.578;5.456;2022-10-17T11:30:50;101935.91;;;15.67;100.00
58622;BME280;44389;51.578;5.456;2022-10-17T11:33:24;101935.91;;;15.67;100.00
58622;BME280;44389;51.578;5.456;2022-10-17T11:35:53;101948.84;;;15.64;100.00
58622;BME280;44389;51.578;5.456;2022-10-17T11:38:31;101946.25;;;15.64;100.00
58622;BME280;44389;51.578;5.456;2022-10-17T11:41:00;101950.56;;;15.63;100.00
58622;BME280;44389;51.578;5.456;2022-10-17T11:43:41;101948.84;;;15.64;100.00
58622;BME280;44389;51.578;5.456;2022-10-17T11:46:22;101953.19;;;15.65;100.00
58622;BME280;44389;51.578;5.456;2022-10-17T11:49:14;101953.28;;;15.68;100.00
58622;BME280;44389;51.578;5.456;2022-10-17T11:51:50;101956.75;;;15.69;100.00
58622;BME280;44389;51.578;5.456;2022-10-17T11:54:57;101961.06;;;15.68;100.00
58622;BME280;44389;51.578;5.456;2022-10-17T12:08:33;101963.75;;;15.71;100.00
58622;BME280;44389;51.578;5.456;2022-10-17T12:11:07;101967.38;;;15.76;100.00
58622;BME280;44389;51.578;5.456;2022-10-17T12:18:42;101972.13;;;15.93;100.00
58622;BME280;44389;51.578;5.456;2022-10-17T12:21:07;101961.81;;;15.96;100.00
58622;BME280;44389;51.578;5.456;2022-10-17T12:23:33;101963.56;;;15.97;100.00
58622;BME280;44389;51.578;5.456;2022-10-17T12:26:02;101967.84;;;15.95;100.00
58622;BME280;44389;51.578;5.456;2022-10-17T12:31:09;101973.91;;;15.94;100.00
58622;BME280;44389;51.578;5.456;2022-10-17T12:33:47;101971.44;;;16.00;100.00
58622;BME280;44389;51.578;5.456;2022-10-17T12:46:48;101974.81;;;16.31;100.00
58622;BME280;44389;51.578;5.456;2022-10-17T12:49:22;101976.59;;;16.34;100.00
58622;BME280;44389;51.578;5.456;2022-10-17T12:54:40;102000.06;;;16.35;100.00
58622;BME280;44389;51.578;5.456;2022-10-17T13:00:13;102010.50;;;16.37;100.00
58622;BME280;44389;51.578;5.456;2022-10-17T13:02:40;102006.91;;;16.33;100.00
58622;BME280;44389;51.578;5.456;2022-10-17T13:05:14;102015.59;;;16.32;100.00
58622;BME280;44389;51.578;5.456;2022-10-17T13:07:41;102019.84;;;16.28;100.00
58622;BME280;44389;51.578;5.456;2022-10-17T13:10:17;102019.19;;;16.37;100.00
58622;BME280;44389;51.578;5.456;2022-10-17T13:12:43;102020.53;;;16.23;100.00
58622;BME280;44389;51.578;5.456;2022-10-17T13:15:15;102021.31;;;16.19;100.00
58622;BME280;44389;51.578;5.456;2022-10-17T13:17:41;102028.13;;;16.13;100.00
58622;BME280;44389;51.578;5.456;2022-10-17T13:20:18;102029.84;;;16.13;100.00
58622;BME280;44389;51.578;5.456;2022-10-17T13:22:44;102032.41;;;16.11;100.00
58622;BME280;44389;51.578;5.456;2022-10-17T13:25:17;102033.28;;;16.12;100.00
58622;BME280;44389;51.578;5.456;2022-10-17T13:27:43;102026.34;;;16.12;100.00
58622;BME280;44389;51.578;5.456;2022-10-17T13:32:49;102033.28;;;16.12;100.00
58622;BME280;44389;51.578;5.456;2022-10-17T13:35:21;102041.06;;;16.10;100.00
58622;BME280;44389;51.578;5.456;2022-10-17T13:37:48;102049.75;;;16.12;100.00
58622;BME280;44389;51.578;5.456;2022-10-17T13:40:22;102048.06;;;16.13;100.00
58622;BME280;44389;51.578;5.456;2022-10-17T13:42:49;102048.06;;;16.13;100.00
58622;BME280;44389;51.578;5.456;2022-10-17T13:45:19;102048.91;;;16.12;100.00
58622;BME280;44389;51.578;5.456;2022-10-17T13:47:45;102050.63;;;16.11;100.00
58622;BME280;44389;51.578;5.456;2022-10-17T13:50:39;102058.50;;;16.15;100.00
58622;BME280;44389;51.578;5.456;2022-10-17T13:53:29;102060.09;;;16.09;100.00
58622;BME280;44389;51.578;5.456;2022-10-17T13:56:30;102072.16;;;16.07;100.00
58622;BME280;44389;51.578;5.456;2022-10-17T13:58:55;102073.91;;;16.07;100.00
58622;BME280;44389;51.578;5.456;2022-10-17T14:01:22;102071.31;;;16.07;100.00
58622;BME280;44389;51.578;5.456;2022-10-17T14:03:48;102077.34;;;16.06;100.00
58622;BME280;44389;51.578;5.456;2022-10-17T14:06:19;102075.56;;;16.05;100.00
58622;BME280;44389;51.578;5.456;2022-10-17T14:08:59;102094.66;;;16.05;100.00
58622;BME280;44389;51.578;5.456;2022-10-17T14:13:58;102094.16;;;16.19;100.00
58622;BME280;44389;51.578;5.456;2022-10-17T14:16:25;102089.88;;;16.21;100.00
58622;BME280;44389;51.578;5.456;2022-10-17T14:18:52;102098.69;;;16.26;100.00
58622;BME280;44389;51.578;5.456;2022-10-17T14:21:24;102106.44;;;16.24;100.00
58622;BME280;44389;51.578;5.456;2022-10-17T14:23:52;102104.97;;;16.36;100.00
58622;BME280;44389;51.578;5.456;2022-10-17T14:26:20;102104.13;;;16.35;100.00
58622;BME280;44389;51.578;5.456;2022-10-17T14:29:02;102100.75;;;16.39;100.00
58622;BME280;44389;51.578;5.456;2022-10-17T14:31:30;102111.25;;;16.42;100.00